CheckWX is a tool to help pilots better visualize weather data.  It is not intended as a substitute for an official pre-flight weather briefing.

10:52:24 UTC

KCFJ METAR
Crawfordsville Municipal Airport
Crawfordsville, Indiana, USA
Current

17 mins ago

KCFJ 171035Z AUTO 12003KT 7SM CLR M05/M05 A3013 RMK AO2 T10521052
Observed
Nov-17 @ 10:35 UTC
Wind
  • 120° at 3 KTS
Visibility
7 SM
Flight Rules
VFR
Cloud Levels
  • Clear skies
Temperature
-5°C / 23°F
Dewpoint
-5°C / 23°F
Humidity
100%
Altimeter
30.13" Hg
Pressure
1020.32 hPa
Previous

37 mins ago

KCFJ 171015Z AUTO 10003KT 5SM BR CLR M06/M06 A3013 RMK AO2 T10621062
Observed
Nov-17 @ 10:15 UTC
Wind
  • 100° at 3 KTS
Visibility
5 SM
Flight Rules
MVFR
Conditions
Mist
Cloud Levels
  • Clear skies
Temperature
-6°C / 21°F
Dewpoint
-6°C / 21°F
Humidity
100%
Altimeter
30.13" Hg
Pressure
1020.32 hPa
Previous

57 mins ago

KCFJ 170955Z AUTO 00000KT 7SM CLR M06/M06 A3014 RMK AO2 T10611061
Observed
Nov-17 @ 09:55 UTC
Visibility
7 SM
Flight Rules
VFR
Cloud Levels
  • Clear skies
Temperature
-6°C / 21°F
Dewpoint
-6°C / 21°F
Humidity
100%
Altimeter
30.14" Hg
Pressure
1020.62 hPa